aviador You're here:

LEVC Decoded Metar

VALENCIA in SPAIN
Report Time2014-10-31 16:30:00
UTC Time2014-10-31 16:54:32
Flight Rules vfr VFR
Wind120° at 06 kt
W.Decomp.*RWY 12: 6.0 kt HW 0.1 kt RCW
W.Rank120° ranks 6
Current wind is below 120° avg. (7.9)
Visibility9999 m
Phenomena:N/A
Clouds:Few 030 Hf
Expected CloudBase > 2,400 ft AGL from Temp-Dew spread
CeilingNone
Temp22°C (ISA +7)
Dew Point16°C (69% RH)
AAT21.8°C
QNH1023 hPa
Density Alt971 ft
Elevation203 ft
Report Wrong Elevation
Raw Report
METAR LEVC 311630Z 12006KT 080V140 9999 FEW030 22/16 Q1023 NOSIG=

Flight School in Barcelona

Extra information for LEVC:More info

Metar Taf Metar & Taf Last 4 Metars F.Rules Stats Wind Profile Meteogram Temp Stats Airport Information Weather charts Add Link Nearby VenuesMetar ALERT Operation Metar Decoded Social comments

Webcam Valencia